Map
Station Wind speed Max wind speed(m/s) Wind direction(m/s) Wind speed(kn) Max wind speed(kn) Temperature Air Pressure Humidity Last update Visibility Last update (visibility)
1.0 1.4 40.5 1.94 2.72 16.5 999.7 82.3 28/09/22 05:22 20000 28/09/22 05:22
3.2 4.3 238.4 6.22 8.36 17.5 996.8 95.8 28/09/22 05:22 20000 28/09/22 05:22
1.9 2.7 215.1 3.69 5.25 15.9 979.4 86.4 28/09/22 05:22 20000 28/09/22 05:22
2.5 3 323.6 4.86 5.83 17.0 1001.1 74.3 28/09/22 05:22 20000 28/09/22 05:22
2.4 4.1 276.6 4.67 7.97 15.9 1001.3 93.1 28/09/22 05:22 20000 28/09/22 05:22
2.9 3.6 274.7 5.64 7 15.7 1000.1 85.3 28/09/22 05:22 20000 28/09/22 05:22
1.9 2.4 280.7 3.69 4.67 15.7 1000.5 84.2 28/09/22 05:22 N/A N/A
1.5 2.7 299.7 2.92 5.25 15.2 999.7 86.7 28/09/22 05:22 N/A N/A
2.1 2.6 242.5 4.08 5.05 15.3 1000.6 90.5 28/09/22 05:22 16275 28/09/22 05:22
2.0 3.2 281.3 3.89 6.22 N/A N/A 0.0 28/09/22 05:22 N/A N/A
1.3 2 291.1 2.53 3.89 13.9 1001.4 85.9 28/09/22 05:22 20000 28/09/22 05:22
0.2 0.3 266.0 0.39 0.58 16.8 1004.7 77.6 28/09/22 05:22 N/A N/A
0.6 0.9 273.1 1.17 1.75 14.6 1000.2 88.7 28/09/22 05:22 12731 28/09/22 05:22
1.1 1.2 204.0 2.14 2.33 14.8 1000.5 90.2 28/09/22 05:22 19781 28/09/22 05:22
1.3 1.8 270.8 2.53 3.5 15.2 998.1 81.8 28/09/22 05:22 N/A N/A
3.3 4.2 240.4 6.41 8.16 18.2 978.1 67.1 28/09/22 05:22 20000 28/09/22 05:21
2.3 4.7 258.2 4.47 9.14 19.3 973.6 82.6 28/09/22 05:22 20000 28/09/22 05:22
3.4 4.7 3.2 6.61 9.14 17.9 1002.9 68.6 28/09/22 05:22 20000 28/09/22 05:21
4.6 5.2 301.4 8.94 10.11 17.9 1000.6 77.2 28/09/22 05:22 20000 28/09/22 05:22
3.9 4.5 319.0 7.58 8.75 17.6 1001.5 71.2 28/09/22 05:22 20000 28/09/22 05:22
1.5 2.7 211.0 2.92 5.25 18.7 1002.4 83.6 28/09/22 05:22 20000 28/09/22 05:22
1.1 2 344.0 2.14 3.89 19.5 978.9 90.5 28/09/22 05:22 20000 28/09/22 05:22
1.2 2 215.5 2.33 3.89 20.4 999.1 76.5 28/09/22 05:22 20000 28/09/22 05:22